Terminal Aerodrome Forecast
Issued by NWS

Home | Current Version | Previous Version | Text Only | Print | Product List | Glossary On
Versions: 1 2 3 4 5 6 7 8 9 10 11 12 13 14 15 16 17 18 19 20
020
FTUS43 KBIS 221731
TAFDIK
TAF
KDIK 221731Z 2218/2318 36014KT 1SM -SN BR BKN007 OVC015
      TEMPO 2218/2220 1/2SM SN FG VV005
     FM222000 01013KT P6SM -SN OVC008
     FM230000 01008KT P6SM OVC010
     FM230400 03005KT 6SM BR OVC008
     FM230900 07006KT 3SM BR OVC006
     FM231600 07009KT P6SM OVC008=

USA.gov is the U.S. government's official web portal to all federal, state and local government web resources and services.